Time;durP1;ratioP1;P1;durP2;ratioP2;P2;SDS_P1;SDS_P2;PMS_P1;PMS_P2;Temp;Humidity;BMP_temperature;BMP_pressure;BME280_temperature;BME280_humidity;BME280_pressure;Samples;Min_cycle;Max_cycle;Signal;HPM_P1;HPM_P2
2022/04/09 00:02:22;;;;;;;22.48;21.48;;;8.40;74.20;;;;;;5028703;28;20064;-86
2022/04/09 00:04:49;;;;;;;21.80;20.80;;;8.40;74.20;;;;;;5011862;28;20504;-85
2022/04/09 00:07:15;;;;;;;21.90;20.90;;;8.40;74.20;;;;;;5014147;28;20097;-86
2022/04/09 00:09:41;;;;;;;21.50;20.50;;;8.40;74.10;;;;;;5008519;28;20037;-86
2022/04/09 00:12:08;;;;;;;22.08;21.08;;;8.40;74.10;;;;;;5005957;28;20025;-85
2022/04/09 00:14:34;;;;;;;21.42;20.42;;;8.40;74.20;;;;;;5031104;28;20037;-86
2022/04/09 00:17:00;;;;;;;22.17;21.17;;;8.40;74.10;;;;;;5029565;28;20041;-86
2022/04/09 00:19:27;;;;;;;21.58;20.58;;;8.40;74.20;;;;;;5029612;28;20037;-85
2022/04/09 00:21:53;;;;;;;21.23;20.23;;;8.40;74.20;;;;;;5028481;28;20036;-85
2022/04/09 00:24:19;;;;;;;21.80;20.80;;;8.40;74.20;;;;;;4988919;28;20494;-85
2022/04/09 00:26:45;;;;;;;20.45;19.55;;;8.40;74.20;;;;;;5011890;28;20044;-85
2022/04/09 00:29:11;;;;;;;21.60;20.60;;;8.30;74.20;;;;;;5029888;28;20052;-85
2022/04/09 00:31:37;;;;;;;21.25;20.25;;;8.30;74.20;;;;;;5028299;28;20037;-85
2022/04/09 00:34:05;;;;;;;21.67;20.67;;;8.40;74.20;;;;;;5030298;28;20037;-85
2022/04/09 00:36:31;;;;;;;21.40;20.40;;;8.40;74.20;;;;;;5029132;28;20030;-85
2022/04/09 00:38:57;;;;;;;21.33;20.33;;;8.40;74.10;;;;;;5031137;28;20034;-85
2022/04/09 00:41:23;;;;;;;20.23;19.33;;;8.40;74.10;;;;;;5031983;28;20371;-85
2022/04/09 00:43:49;;;;;;;21.20;20.20;;;8.40;74.10;;;;;;5033198;28;20072;-85
2022/04/09 00:46:15;;;;;;;22.05;21.05;;;8.40;74.10;;;;;;5034126;28;20395;-85
2022/04/09 00:48:44;;;;;;;21.05;20.05;;;8.40;74.10;;;;;;5034263;28;20036;-85
2022/04/09 00:51:10;;;;;;;21.92;20.85;;;8.40;74.10;;;;;;5033047;28;20041;-85
2022/04/09 00:53:39;;;;;;;21.58;20.58;;;8.40;74.00;;;;;;5033165;28;20056;-85
2022/04/09 00:56:19;;;;;;;20.20;19.30;;;8.40;74.10;;;;;;5033088;28;20092;-85
2022/04/09 00:58:55;;;;;;;21.33;20.33;;;8.50;74.10;;;;;;5032205;28;20038;-86
2022/04/09 01:01:27;;;;;;;21.38;20.38;;;8.40;74.10;;;;;;5016926;28;20038;-85
2022/04/09 01:03:53;;;;;;;21.52;20.52;;;8.50;74.10;;;;;;5016442;28;20029;-85
2022/04/09 01:06:19;;;;;;;22.17;21.08;;;8.50;74.10;;;;;;5036592;28;20029;-85
2022/04/09 01:08:46;;;;;;;21.27;20.27;;;8.50;74.10;;;;;;5015094;28;20390;-85
2022/04/09 01:11:13;;;;;;;20.35;19.45;;;8.50;74.10;;;;;;5016020;28;20375;-85
2022/04/09 01:13:39;;;;;;;22.40;21.40;;;8.50;74.10;;;;;;5016957;28;20048;-85
2022/04/09 01:16:06;;;;;;;22.05;21.05;;;8.50;74.10;;;;;;5032828;28;20029;-85
2022/04/09 01:18:33;;;;;;;21.13;20.13;;;8.50;74.10;;;;;;5033944;28;20036;-85
2022/04/09 01:21:03;;;;;;;22.10;21.10;;;8.50;74.10;;;;;;5032802;28;20028;-85
2022/04/09 01:23:30;;;;;;;21.33;20.33;;;8.50;74.10;;;;;;5032133;28;20038;-86
2022/04/09 01:25:57;;;;;;;21.58;20.58;;;8.50;74.10;;;;;;5015164;28;20034;-85
2022/04/09 01:28:24;;;;;;;20.85;19.88;;;8.60;74.20;;;;;;5033277;28;20036;-86
2022/04/09 01:30:50;;;;;;;21.20;20.20;;;8.50;74.10;;;;;;5015930;28;20029;-85
2022/04/09 01:33:17;;;;;;;21.80;20.80;;;8.60;74.20;;;;;;5015682;28;20041;-85
2022/04/09 01:35:43;;;;;;;22.20;21.20;;;8.50;74.10;;;;;;5015665;28;20052;-85
2022/04/09 01:38:10;;;;;;;21.75;20.75;;;8.60;74.10;;;;;;5033815;28;20014;-85
2022/04/09 01:40:36;;;;;;;22.50;21.50;;;8.60;74.20;;;;;;5027010;28;20378;-85
2022/04/09 01:43:02;;;;;;;23.13;22.02;;;8.60;74.10;;;;;;5032078;28;20025;-85
2022/04/09 01:45:28;;;;;;;22.08;21.08;;;8.50;74.00;;;;;;5031317;28;20037;-85
2022/04/09 01:47:55;;;;;;;21.10;20.10;;;8.50;74.00;;;;;;5031816;28;20029;-85
2022/04/09 01:50:26;;;;;;;19.55;18.65;;;8.50;74.20;;;;;;5016188;28;20033;-85
2022/04/09 01:52:52;;;;;;;21.17;20.17;;;8.50;74.20;;;;;;5032620;28;20042;-85
2022/04/09 01:55:18;;;;;;;20.75;19.75;;;8.50;74.20;;;;;;5013695;28;20556;-85
2022/04/09 01:57:46;;;;;;;20.90;19.90;;;8.60;74.20;;;;;;5030967;28;20025;-85
2022/04/09 02:00:12;;;;;;;21.85;20.85;;;8.60;74.20;;;;;;5030968;28;20036;-84
2022/04/09 02:02:39;;;;;;;22.48;21.48;;;8.60;74.20;;;;;;5032164;28;20144;-85
2022/04/09 02:05:06;;;;;;;22.25;21.15;;;8.60;74.20;;;;;;5036641;28;20022;-85
2022/04/09 02:07:32;;;;;;;20.73;19.77;;;8.60;74.20;;;;;;5033749;28;20030;-84
2022/04/09 02:09:58;;;;;;;21.90;20.90;;;8.60;74.30;;;;;;5015211;28;20526;-85
2022/04/09 02:12:24;;;;;;;21.85;20.75;;;8.60;74.30;;;;;;5030989;28;20041;-84
2022/04/09 02:14:50;;;;;;;21.63;20.63;;;8.60;74.30;;;;;;5032089;28;20056;-85
2022/04/09 02:17:17;;;;;;;21.52;20.52;;;8.60;74.30;;;;;;5032555;28;20029;-84
2022/04/09 02:19:43;;;;;;;21.70;20.70;;;8.50;74.30;;;;;;5031880;28;20033;-85
2022/04/09 02:22:09;;;;;;;22.83;21.73;;;8.50;74.40;;;;;;5015748;28;20037;-85
2022/04/09 02:24:35;;;;;;;21.23;20.23;;;8.50;74.40;;;;;;5030794;28;20394;-85
2022/04/09 02:27:01;;;;;;;22.80;21.75;;;8.50;74.40;;;;;;5033271;28;20021;-85
2022/04/09 02:29:27;;;;;;;21.33;20.33;;;8.40;74.40;;;;;;5032280;28;20501;-85
2022/04/09 02:31:53;;;;;;;21.42;20.42;;;8.40;74.50;;;;;;5030626;28;20371;-85
2022/04/09 02:34:20;;;;;;;22.15;21.15;;;8.30;74.50;;;;;;5029798;28;20033;-85
2022/04/09 02:36:46;;;;;;;22.45;21.45;;;8.30;74.60;;;;;;5031837;28;20437;-85
2022/04/09 02:39:12;;;;;;;21.77;20.77;;;8.30;74.70;;;;;;5031015;28;20397;-86
2022/04/09 02:41:38;;;;;;;21.38;20.38;;;8.30;74.70;;;;;;5030982;28;20033;-86
2022/04/09 02:44:06;;;;;;;20.50;19.60;;;8.20;74.70;;;;;;5030861;28;20038;-86
2022/04/09 02:46:33;;;;;;;21.63;20.63;;;8.20;74.80;;;;;;5014814;28;20034;-86
2022/04/09 02:48:59;;;;;;;21.17;20.17;;;8.20;74.80;;;;;;5029779;28;20044;-83
2022/04/09 02:51:25;;;;;;;21.10;20.10;;;8.20;74.80;;;;;;5029956;28;20386;-84
2022/04/09 02:53:51;;;;;;;21.52;20.52;;;8.10;74.80;;;;;;5031290;28;20383;-84
2022/04/09 02:56:17;;;;;;;21.58;20.58;;;8.10;74.80;;;;;;5030958;28;20037;-83
2022/04/09 02:58:43;;;;;;;21.17;20.17;;;8.10;74.90;;;;;;5030782;28;20036;-83
2022/04/09 03:01:10;;;;;;;20.92;19.92;;;8.10;74.90;;;;;;5032236;28;20034;-82
2022/04/09 03:03:36;;;;;;;20.95;19.95;;;8.00;74.80;;;;;;5030379;28;20485;-83
2022/04/09 03:06:02;;;;;;;20.83;19.83;;;8.00;74.90;;;;;;5001329;28;20132;-83
2022/04/09 03:08:28;;;;;;;20.08;19.17;;;8.00;74.90;;;;;;5032271;28;20405;-85
2022/04/09 03:10:54;;;;;;;21.10;20.10;;;8.00;74.90;;;;;;5030562;28;20033;-84
2022/04/09 03:13:21;;;;;;;21.52;20.48;;;8.00;74.90;;;;;;5015685;28;20094;-87
2022/04/09 03:15:47;;;;;;;19.98;19.08;;;8.00;74.90;;;;;;5016092;28;20044;-83
2022/04/09 03:18:13;;;;;;;21.80;20.70;;;8.00;74.80;;;;;;5031411;28;20021;-82
2022/04/09 03:20:39;;;;;;;19.80;18.90;;;8.00;74.80;;;;;;5031850;28;20581;-83
2022/04/09 03:23:06;;;;;;;21.13;20.13;;;8.00;74.80;;;;;;5032048;28;20025;-86
2022/04/09 03:25:32;;;;;;;20.30;19.33;;;8.00;74.90;;;;;;5033780;28;20036;-83
2022/04/09 03:27:58;;;;;;;20.90;19.90;;;7.90;74.80;;;;;;5031487;28;20040;-83
2022/04/09 03:30:24;;;;;;;19.88;18.98;;;8.00;74.90;;;;;;5034334;28;20489;-84
2022/04/09 03:32:50;;;;;;;20.33;19.42;;;7.90;74.80;;;;;;5033743;28;20029;-86
2022/04/09 03:35:17;;;;;;;19.02;18.13;;;7.90;74.90;;;;;;5015468;28;20490;-87
2022/04/09 03:37:45;;;;;;;19.40;18.50;;;7.90;74.90;;;;;;5043521;28;20043;-88
2022/04/09 03:40:12;;;;;;;19.50;18.60;;;7.90;74.90;;;;;;5025222;28;20280;-87
2022/04/09 03:42:38;;;;;;;20.30;19.40;;;7.90;75.00;;;;;;5037927;28;20040;-89
2022/04/09 03:45:05;;;;;;;20.30;19.40;;;7.90;74.90;;;;;;5004491;28;20041;-85
2022/04/09 03:47:34;;;;;;;19.13;18.23;;;7.90;74.90;;;;;;5008394;28;20044;-88
2022/04/09 03:50:01;;;;;;;20.85;19.85;;;7.90;75.00;;;;;;5049220;28;20032;-89
2022/04/09 03:52:27;;;;;;;20.90;19.90;;;7.90;75.00;;;;;;5055717;28;20131;-90
2022/04/09 03:54:53;;;;;;;20.88;19.90;;;7.80;75.00;;;;;;5051405;28;20048;-88
2022/04/09 03:57:19;;;;;;;20.08;19.17;;;7.80;75.00;;;;;;5049556;28;20014;-90
2022/04/09 03:59:46;;;;;;;21.30;20.30;;;7.80;75.10;;;;;;5017413;28;20049;-90
2022/04/09 04:02:12;;;;;;;21.40;20.40;;;7.80;75.10;;;;;;5044603;28;20036;-88
2022/04/09 04:04:38;;;;;;;22.02;20.92;;;7.70;75.10;;;;;;5024965;28;20033;-89
2022/04/09 04:07:04;;;;;;;19.85;18.95;;;7.70;75.10;;;;;;5011249;28;20037;-88
2022/04/09 04:09:30;;;;;;;21.17;20.17;;;7.70;75.10;;;;;;5030550;28;20020;-89
2022/04/09 04:11:56;;;;;;;21.38;20.38;;;7.60;75.10;;;;;;5043384;28;20470;-90
2022/04/09 04:14:23;;;;;;;21.10;20.10;;;7.70;75.20;;;;;;5028278;28;20045;-90
2022/04/09 04:16:50;;;;;;;21.40;20.40;;;7.60;75.20;;;;;;5032907;28;20056;-89
2022/04/09 04:19:16;;;;;;;20.45;19.45;;;7.60;75.30;;;;;;5014040;28;20037;-90
2022/04/09 04:21:42;;;;;;;20.25;19.27;;;7.50;75.30;;;;;;5034016;28;20505;-89
2022/04/09 04:24:08;;;;;;;19.88;18.98;;;7.50;75.30;;;;;;5033500;28;20036;-91
2022/04/09 04:26:34;;;;;;;18.92;18.02;;;7.50;75.30;;;;;;5031626;28;20033;-90
2022/04/09 04:29:00;;;;;;;19.10;18.20;;;7.50;75.40;;;;;;5015863;28;20050;-90
2022/04/09 04:31:26;;;;;;;20.58;19.58;;;7.40;75.40;;;;;;5007275;28;20033;-90
2022/04/09 04:33:52;;;;;;;19.90;19.00;;;7.40;75.40;;;;;;5030520;28;20037;-90
2022/04/09 04:36:18;;;;;;;20.40;19.40;;;7.40;75.40;;;;;;5031757;28;20164;-90
2022/04/09 04:38:45;;;;;;;20.27;19.38;;;7.40;75.40;;;;;;5033486;28;20025;-90
2022/04/09 04:41:11;;;;;;;21.15;20.15;;;7.30;75.40;;;;;;5014118;28;20300;-90
2022/04/09 04:43:37;;;;;;;20.75;19.77;;;7.30;75.40;;;;;;5034331;28;20386;-90
2022/04/09 04:46:03;;;;;;;20.67;19.52;;;7.30;75.50;;;;;;5009289;28;20033;-91
2022/04/09 04:48:29;;;;;;;20.08;19.08;;;7.30;75.60;;;;;;5032702;28;20040;-90
2022/04/09 04:50:55;;;;;;;20.30;19.40;;;7.30;75.60;;;;;;5033392;28;20036;-89
2022/04/09 04:53:21;;;;;;;20.27;19.35;;;7.20;75.50;;;;;;5033707;28;20053;-90
2022/04/09 04:55:47;;;;;;;19.63;18.73;;;7.20;75.50;;;;;;5016442;28;20045;-90
2022/04/09 04:58:18;;;;;;;20.27;19.38;;;7.20;75.50;;;;;;5015024;28;20046;-90
2022/04/09 05:00:44;;;;;;;17.15;16.35;;;7.20;75.50;;;;;;5011809;28;20034;-91
2022/04/09 05:03:10;;;;;;;19.10;18.20;;;7.20;75.60;;;;;;5013566;28;20398;-90
2022/04/09 05:05:36;;;;;;;19.23;18.33;;;7.10;75.50;;;;;;5032912;28;20056;-90
2022/04/09 05:08:03;;;;;;;17.48;16.67;;;7.10;75.60;;;;;;5015700;28;20405;-90
2022/04/09 05:10:29;;;;;;;20.10;19.20;;;7.10;75.70;;;;;;5034981;28;20037;-90
2022/04/09 05:12:55;;;;;;;19.25;18.35;;;7.00;75.60;;;;;;5021690;28;20046;-90
2022/04/09 05:15:21;;;;;;;17.40;16.60;;;7.00;75.60;;;;;;5023448;28;20505;-90
2022/04/09 05:17:47;;;;;;;19.67;18.67;;;7.00;75.60;;;;;;5015869;28;20084;-90
2022/04/09 05:20:15;;;;;;;19.65;18.75;;;7.10;75.70;;;;;;5029990;28;20029;-90
2022/04/09 05:22:46;;;;;;;19.00;18.10;;;7.10;75.60;;;;;;5033619;28;20056;-90
2022/04/09 05:25:17;;;;;;;19.38;18.48;;;7.10;75.50;;;;;;5029084;28;20037;-90
2022/04/09 05:27:43;;;;;;;;;;;7.10;75.50;;;;;;4997504;28;20037;-90
2022/04/09 05:30:09;;;;;;;19.63;18.73;;;7.10;75.50;;;;;;5031452;28;19909;-89
2022/04/09 05:32:39;;;;;;;20.23;19.33;;;7.00;75.50;;;;;;4995827;28;20038;-90
2022/04/09 05:35:07;;;;;;;18.35;17.45;;;7.00;75.50;;;;;;5012523;28;20041;-90
2022/04/09 05:37:33;;;;;;;19.48;18.58;;;6.90;75.50;;;;;;5017553;28;20022;-91
2022/04/09 05:39:59;;;;;;;19.77;18.88;;;6.90;75.60;;;;;;5013887;28;20045;-90
2022/04/09 05:42:25;;;;;;;20.45;19.55;;;6.90;75.60;;;;;;5014795;28;20041;-91
2022/04/09 05:44:55;;;;;;;20.52;19.52;;;6.90;75.50;;;;;;5014220;28;20025;-89
2022/04/09 05:47:21;;;;;;;19.83;18.92;;;6.90;75.50;;;;;;5027244;28;20061;-90
2022/04/09 05:49:47;;;;;;;19.50;18.60;;;6.90;75.60;;;;;;5031989;28;20030;-90
2022/04/09 05:52:13;;;;;;;20.90;19.80;;;6.90;75.50;;;;;;5022414;28;20048;-90
2022/04/09 05:54:39;;;;;;;19.60;18.70;;;6.90;75.60;;;;;;5005543;28;20049;-90
2022/04/09 05:57:06;;;;;;;20.20;19.30;;;6.90;75.50;;;;;;5007207;28;20494;-90
2022/04/09 05:59:32;;;;;;;19.98;19.08;;;6.90;76.30;;;;;;5030729;28;20042;-90
2022/04/09 06:01:58;;;;;;;19.92;19.02;;;6.90;75.60;;;;;;5014454;28;20041;-90
2022/04/09 06:04:24;;;;;;;19.05;18.15;;;6.90;75.50;;;;;;5017702;28;20037;-90
2022/04/09 06:06:50;;;;;;;20.17;19.27;;;7.00;75.60;;;;;;5031118;28;20394;-91
2022/04/09 06:09:16;;;;;;;19.63;18.70;;;7.00;75.50;;;;;;5031311;28;20029;-90
2022/04/09 06:11:42;;;;;;;18.13;17.33;;;7.10;75.60;;;;;;5028716;28;20502;-90
2022/04/09 06:14:09;;;;;;;19.70;18.45;;;7.30;75.50;;;;;;5030009;28;20048;-90
2022/04/09 06:16:38;;;;;;;20.15;19.25;;;7.60;75.00;;;;;;4998279;28;20056;-88
2022/04/09 06:19:06;;;;;;;19.83;18.92;;;7.80;74.50;;;;;;5030247;28;20050;-86
2022/04/09 06:21:33;;;;;;;19.30;18.40;;;8.10;74.10;;;;;;5029287;28;20042;-84
2022/04/09 06:24:00;;;;;;;20.08;19.17;;;8.30;73.70;;;;;;5012405;28;20033;-85
2022/04/09 06:26:27;;;;;;;20.17;19.17;;;8.60;73.40;;;;;;5029643;28;20037;-86
2022/04/09 06:28:53;;;;;;;20.58;19.67;;;8.80;73.10;;;;;;5031475;28;20044;-83
2022/04/09 06:31:19;;;;;;;21.25;20.25;;;9.00;72.80;;;;;;5028896;28;20048;-83
2022/04/09 06:33:45;;;;;;;21.73;20.73;;;9.20;72.60;;;;;;5030204;28;20040;-82
2022/04/09 06:36:12;;;;;;;20.33;19.42;;;9.40;72.50;;;;;;5028503;28;20470;-82
2022/04/09 06:38:38;;;;;;;22.27;21.27;;;9.60;72.40;;;;;;4991661;28;20049;-84
2022/04/09 06:41:04;;;;;;;1999.90;999.90;;;9.80;72.30;;;;;;5012267;28;20041;-86
2022/04/09 06:43:30;;;;;;;1999.90;999.90;;;9.90;72.20;;;;;;5031966;28;20026;-93
2022/04/09 06:45:57;;;;;;;1999.90;999.90;;;10.10;72.10;;;;;;4993814;28;20045;-83
2022/04/09 06:48:23;;;;;;;1999.90;999.90;;;10.30;72.00;;;;;;5029702;28;20040;-86
2022/04/09 06:50:49;;;;;;;1999.90;999.90;;;10.40;71.80;;;;;;5029450;28;20421;-87
2022/04/09 06:53:15;;;;;;;1999.90;999.90;;;10.50;71.70;;;;;;5028488;28;20050;-88
2022/04/09 06:55:41;;;;;;;1999.90;999.90;;;10.60;71.70;;;;;;5031709;28;20041;-92
2022/04/09 06:58:07;;;;;;;1999.90;999.90;;;10.80;71.70;;;;;;5011769;28;20026;-87
2022/04/09 07:00:33;;;;;;;1999.90;999.90;;;10.90;71.50;;;;;;5027150;28;20030;-88
2022/04/09 07:03:03;;;;;;;1999.90;999.90;;;11.00;71.40;;;;;;5029271;28;20036;-87
2022/04/09 07:05:29;;;;;;;1999.90;999.90;;;11.20;71.30;;;;;;5033772;28;20036;-88
2022/04/09 07:07:55;;;;;;;1999.90;999.90;;;11.30;71.10;;;;;;5013490;28;20386;-90
2022/04/09 07:10:21;;;;;;;1999.90;999.90;;;11.50;71.00;;;;;;5026946;28;20038;-90
2022/04/09 07:12:47;;;;;;;1999.90;999.90;;;11.60;70.80;;;;;;5027022;28;20030;-88
2022/04/09 07:15:13;;;;;;;1999.90;999.90;;;11.80;70.60;;;;;;5010657;28;20045;-91
2022/04/09 07:17:41;;;;;;;1999.90;999.90;;;11.80;70.40;;;;;;5029853;28;20471;-91
2022/04/09 07:20:08;;;;;;;1999.90;999.90;;;11.70;70.50;;;;;;5028657;28;20045;-87
2022/04/09 07:22:35;;;;;;;1999.90;999.90;;;11.70;70.60;;;;;;5032442;28;20040;-88
2022/04/09 07:25:01;;;;;;;1999.90;999.90;;;11.80;70.70;;;;;;5027994;28;20044;-89
2022/04/09 07:27:38;;;;;;;1999.90;999.90;;;11.90;70.60;;;;;;5010700;28;20113;-91
2022/04/09 07:30:05;;;;;;;1999.90;999.90;;;12.00;70.50;;;;;;5012901;28;20466;-90
2022/04/09 07:32:32;;;;;;;1999.90;999.90;;;12.20;70.30;;;;;;5004624;28;20041;-93
2022/04/09 07:34:58;;;;;;;1999.90;999.90;;;12.30;70.00;;;;;;5030527;28;20034;-92
2022/04/09 07:37:24;;;;;;;1999.90;999.90;;;12.60;69.80;;;;;;5036946;28;20034;-92
2022/04/09 07:39:50;;;;;;;1999.90;999.90;;;12.70;69.50;;;;;;5038414;28;20032;-93
2022/04/09 07:42:16;;;;;;;1999.90;999.90;;;12.70;69.30;;;;;;5034627;28;20037;-92
2022/04/09 07:44:42;;;;;;;1999.90;999.90;;;12.70;69.10;;;;;;4998039;28;20390;-87
2022/04/09 07:47:08;;;;;;;1999.90;999.90;;;12.70;69.30;;;;;;5024261;28;20042;-86
2022/04/09 07:49:34;;;;;;;1999.90;999.90;;;12.60;69.50;;;;;;5028630;28;20030;-85
2022/04/09 07:52:01;;;;;;;1999.90;999.90;;;12.70;69.50;;;;;;5027898;28;20605;-85
2022/04/09 07:54:29;;;;;;;1999.90;999.90;;;12.80;69.10;;;;;;5011262;28;20038;-83
2022/04/09 07:56:56;;;;;;;1999.90;999.90;;;12.80;69.00;;;;;;5030841;28;20037;-83
2022/04/09 07:59:22;;;;;;;1999.90;999.90;;;12.80;69.00;;;;;;5030532;28;20038;-83
2022/04/09 08:01:48;;;;;;;1999.90;999.90;;;12.80;69.00;;;;;;5011505;28;20386;-83
2022/04/09 08:04:14;;;;;;;1999.90;999.90;;;12.70;68.90;;;;;;5006125;28;20030;-81
2022/04/09 08:06:40;;;;;;;1999.90;999.90;;;12.70;68.70;;;;;;5029647;28;20034;-81
2022/04/09 08:09:06;;;;;;;1999.90;999.90;;;12.70;68.80;;;;;;5027435;28;20045;-84
2022/04/09 08:11:32;;;;;;;1999.90;999.90;;;12.70;68.60;;;;;;5024621;28;20029;-84
2022/04/09 08:13:59;;;;;;;1999.90;999.90;;;12.80;68.70;;;;;;5027145;28;20402;-83
2022/04/09 08:16:25;;;;;;;1999.90;999.90;;;12.90;68.60;;;;;;5029757;28;20041;-83
2022/04/09 08:18:51;;;;;;;1999.90;999.90;;;13.00;68.10;;;;;;5029111;28;20057;-85
2022/04/09 08:21:18;;;;;;;1999.90;999.90;;;13.00;67.80;;;;;;5027875;28;20034;-84
2022/04/09 08:23:44;;;;;;;1999.90;999.90;;;13.10;67.90;;;;;;5010684;28;20029;-83
2022/04/09 08:26:10;;;;;;;1999.90;999.90;;;13.30;67.80;;;;;;5025710;28;20025;-84
2022/04/09 08:28:37;;;;;;;1999.90;999.90;;;13.50;67.50;;;;;;5031717;28;20119;-85
2022/04/09 08:31:03;;;;;;;1999.90;999.90;;;13.70;67.00;;;;;;5028642;28;20381;-84
2022/04/09 08:33:29;;;;;;;1999.90;999.90;;;13.80;66.70;;;;;;5025858;28;20033;-84
2022/04/09 08:35:55;;;;;;;1999.90;999.90;;;13.90;66.60;;;;;;5026116;28;20044;-84
2022/04/09 08:38:22;;;;;;;1999.90;999.90;;;14.00;66.60;;;;;;5011364;28;20044;-88
2022/04/09 08:40:48;;;;;;;1999.90;999.90;;;14.10;66.30;;;;;;5006928;28;20038;-84
2022/04/09 08:43:14;;;;;;;1999.90;999.90;;;14.10;66.00;;;;;;5028908;28;20025;-83
2022/04/09 08:45:40;;;;;;;1999.90;999.90;;;14.20;66.20;;;;;;5008452;28;20034;-87
2022/04/09 08:48:07;;;;;;;1999.90;999.90;;;14.40;66.00;;;;;;5027422;28;20029;-88
2022/04/09 08:50:35;;;;;;;1999.90;999.90;;;14.50;65.70;;;;;;5011737;28;20029;-87
2022/04/09 08:53:06;;;;;;;1999.90;999.90;;;14.60;65.50;;;;;;5028194;28;20068;-88
2022/04/09 08:55:36;;;;;;;1999.90;999.90;;;14.80;65.30;;;;;;4998812;28;20045;-87
2022/04/09 08:58:03;;;;;;;1999.90;999.90;;;14.90;64.80;;;;;;5026163;28;21577;-86
2022/04/09 09:00:29;;;;;;;1999.90;999.90;;;14.80;65.00;;;;;;5029172;28;20029;-90
2022/04/09 09:02:57;;;;;;;1999.90;999.90;;;14.80;64.90;;;;;;5030745;28;20037;-85
2022/04/09 09:05:37;;;;;;;1999.90;999.90;;;14.90;65.00;;;;;;5034243;28;20033;-87
2022/04/09 09:08:04;;;;;;;1999.90;999.90;;;14.90;64.80;;;;;;5026291;28;20045;-85
2022/04/09 09:10:30;;;;;;;1999.90;999.90;;;15.10;64.70;;;;;;5044297;28;20028;-83
2022/04/09 09:13:01;;;;;;;1999.90;999.90;;;15.00;64.40;;;;;;5031544;28;20029;-83
2022/04/09 09:15:27;;;;;;;1999.90;999.90;;;15.00;64.70;;;;;;5019389;28;20052;-88
2022/04/09 09:17:57;;;;;;;1999.90;999.90;;;15.20;64.50;;;;;;5032484;28;20022;-89
2022/04/09 09:20:24;;;;;;;1999.90;999.90;;;15.30;63.70;;;;;;5030966;28;20034;-88
2022/04/09 09:22:50;;;;;;;1999.90;999.90;;;15.20;63.40;;;;;;5032800;28;20034;-91
2022/04/09 09:25:17;;;;;;;1999.90;999.90;;;15.00;63.40;;;;;;5030536;28;20034;-87
2022/04/09 09:27:43;;;;;;;1999.90;999.90;;;14.70;63.50;;;;;;5033316;28;20033;-83
2022/04/09 09:30:11;;;;;;;1999.90;999.90;;;14.40;63.70;;;;;;5027770;28;20490;-84
2022/04/09 09:32:41;;;;;;;1999.90;999.90;;;14.20;64.00;;;;;;5030872;28;20509;-86
2022/04/09 09:35:09;;;;;;;1999.90;999.90;;;14.20;64.00;;;;;;5028984;28;20018;-84
2022/04/09 09:37:35;;;;;;;1999.90;999.90;;;14.30;63.70;;;;;;5014857;28;20057;-84
2022/04/09 09:40:02;;;;;;;1999.90;999.90;;;14.50;63.50;;;;;;4995215;28;20037;-85
2022/04/09 09:42:28;;;;;;;1999.90;999.90;;;14.70;63.10;;;;;;5014462;28;20045;-85
2022/04/09 09:44:54;;;;;;;1999.90;999.90;;;14.80;62.70;;;;;;5012474;28;20040;-85
2022/04/09 09:47:20;;;;;;;1999.90;999.90;;;14.80;62.70;;;;;;5029964;28;20041;-84
2022/04/09 09:52:27;;;;;;;1999.90;999.90;;;14.90;62.40;;;;;;5036021;28;20470;-86
2022/04/09 09:55:06;;;;;;;1999.90;999.90;;;14.70;62.10;;;;;;5004254;28;20034;-85
2022/04/09 09:57:33;;;;;;;1999.90;999.90;;;14.40;62.50;;;;;;4992935;28;20054;-86
2022/04/09 10:00:04;;;;;;;1999.90;999.90;;;14.20;62.70;;;;;;5011319;28;20022;-84
2022/04/09 10:02:30;;;;;;;1999.90;999.90;;;14.10;62.60;;;;;;5025946;28;20044;-85
2022/04/09 10:04:56;;;;;;;1999.90;999.90;;;14.20;62.80;;;;;;5033109;28;20029;-85
2022/04/09 10:07:24;;;;;;;1999.90;999.90;;;14.60;62.40;;;;;;5010554;28;20042;-85
2022/04/09 10:09:50;;;;;;;1999.90;999.90;;;15.00;61.40;;;;;;5026202;28;20033;-82
2022/04/09 10:12:23;;;;;;;1999.90;999.90;;;15.20;60.70;;;;;;5027585;28;20036;-88
2022/04/09 10:14:53;;;;;;;1999.90;999.90;;;15.40;60.50;;;;;;5021506;28;20056;-86
2022/04/09 10:17:19;;;;;;;1999.90;999.90;;;15.50;60.30;;;;;;5009122;28;20495;-83
2022/04/09 10:19:54;;;;;;;1999.90;999.90;;;15.50;60.20;;;;;;5030166;28;20041;-91
2022/04/09 10:22:35;;;;;;;1999.90;999.90;;;15.40;60.10;;;;;;4995092;28;20486;-92
2022/04/09 10:25:01;;;;;;;1999.90;999.90;;;15.20;60.40;;;;;;5028199;28;20025;-90
2022/04/09 10:27:38;;;;;;;1999.90;999.90;;;15.10;60.50;;;;;;5013644;28;20034;-91
2022/04/09 10:30:16;;;;;;;1999.90;999.90;;;15.20;60.70;;;;;;5003662;28;20042;-86
2022/04/09 10:32:43;;;;;;;1999.90;999.90;;;15.30;60.10;;;;;;5028912;28;20021;-87
2022/04/09 10:35:41;;;;;;;1999.90;999.90;;;15.40;59.90;;;;;;5026959;28;20026;-91
2022/04/09 10:38:10;;;;;;;1999.90;999.90;;;15.60;59.80;;;;;;5027160;28;20042;-87
2022/04/09 10:40:57;;;;;;;1999.90;999.90;;;15.70;59.70;;;;;;5028368;28;20040;-89
2022/04/09 10:43:25;;;;;;;1999.90;999.90;;;15.70;59.10;;;;;;5014632;28;20057;-85
2022/04/09 10:46:05;;;;;;;1999.90;999.90;;;15.80;58.80;;;;;;5026810;28;20052;-86
2022/04/09 10:48:42;;;;;;;1999.90;999.90;;;15.90;58.70;;;;;;5020722;28;20470;-86
2022/04/09 10:51:12;;;;;;;1999.90;999.90;;;16.20;58.60;;;;;;5026196;28;20028;-87
2022/04/09 10:53:42;;;;;;;1999.90;999.90;;;16.40;58.00;;;;;;4991830;28;20434;-86
2022/04/09 10:56:20;;;;;;;1999.90;999.90;;;16.30;57.50;;;;;;4984653;28;20045;-87
2022/04/09 10:59:16;;;;;;;1999.90;999.90;;;16.10;57.50;;;;;;5008947;28;20056;-88
2022/04/09 11:01:48;;;;;;;1999.90;999.90;;;16.10;57.30;;;;;;5025552;28;20041;-84
2022/04/09 11:04:34;;;;;;;1999.90;999.90;;;16.10;57.40;;;;;;5031581;28;20048;-88
2022/04/09 11:07:01;;;;;;;1999.90;999.90;;;16.10;57.20;;;;;;5027447;28;20493;-86
2022/04/09 11:09:58;;;;;;;1999.90;999.90;;;15.90;57.30;;;;;;5012987;28;20061;-89
2022/04/09 11:12:28;;;;;;;1999.90;999.90;;;15.70;57.70;;;;;;4993473;28;20046;-87
2022/04/09 11:15:04;;;;;;;1999.90;999.90;;;15.60;58.20;;;;;;5026433;28;20021;-84
2022/04/09 11:17:34;;;;;;;1999.90;999.90;;;15.50;58.40;;;;;;5025997;28;20042;-87
2022/04/09 11:20:05;;;;;;;1999.90;999.90;;;15.60;58.10;;;;;;5011573;28;20042;-86
2022/04/09 11:22:38;;;;;;;1999.90;999.90;;;15.60;57.80;;;;;;5009691;28;20486;-88
2022/04/09 11:25:06;;;;;;;1999.90;999.90;;;15.80;57.70;;;;;;5019608;28;20026;-90
2022/04/09 11:27:33;;;;;;;1999.90;999.90;;;16.10;57.30;;;;;;5007563;28;20045;-80
2022/04/09 11:29:59;;;;;;;1999.90;999.90;;;16.30;56.90;;;;;;5026747;28;20025;-83
2022/04/09 11:32:26;;;;;;;1999.90;999.90;;;16.50;56.60;;;;;;5011392;28;20041;-89
2022/04/09 11:34:54;;;;;;;1999.90;999.90;;;16.70;56.20;;;;;;5032999;28;20021;-85
2022/04/09 11:37:20;;;;;;;1999.90;999.90;;;16.90;56.00;;;;;;5008397;28;20056;-86
2022/04/09 11:39:47;;;;;;;1999.90;999.90;;;17.10;55.90;;;;;;5014783;28;20044;-88
2022/04/09 11:42:14;;;;;;;1999.90;999.90;;;17.20;55.50;;;;;;5011797;28;20498;-88
2022/04/09 11:44:40;;;;;;;1999.90;999.90;;;17.10;55.60;;;;;;5031043;28;20029;-90
2022/04/09 11:47:16;;;;;;;1999.90;999.90;;;16.90;55.90;;;;;;5012318;28;20032;-90
2022/04/09 11:49:49;;;;;;;1999.90;999.90;;;16.80;56.20;;;;;;5027757;28;20034;-89
2022/04/09 11:52:26;;;;;;;1999.90;999.90;;;16.80;56.20;;;;;;5009470;28;20033;-82
2022/04/09 11:54:52;;;;;;;1999.90;999.90;;;16.90;55.90;;;;;;5011617;28;20046;-83
2022/04/09 11:57:18;;;;;;;1999.90;999.90;;;16.90;55.20;;;;;;5024241;28;20041;-91
2022/04/09 11:59:52;;;;;;;1999.90;999.90;;;16.60;54.70;;;;;;5028634;28;20374;-87
2022/04/09 12:02:19;;;;;;;1999.90;999.90;;;16.30;54.90;;;;;;5000911;28;20049;-90
2022/04/09 12:04:45;;;;;;;1999.90;999.90;;;16.00;55.20;;;;;;5010716;28;20030;-87
2022/04/09 12:07:12;;;;;;;1999.90;999.90;;;15.70;55.30;;;;;;5010424;28;20037;-87
2022/04/09 12:09:38;;;;;;;1999.90;999.90;;;15.40;55.40;;;;;;5004339;28;20037;-90
2022/04/09 12:12:04;;;;;;;1999.90;999.90;;;15.20;55.70;;;;;;5010722;28;20041;-93
2022/04/09 12:14:30;;;;;;;1999.90;999.90;;;15.20;55.60;;;;;;5011704;28;20026;-90
2022/04/09 12:16:56;;;;;;;1999.90;999.90;;;15.40;55.40;;;;;;5030347;28;20053;-89
2022/04/09 12:19:30;;;;;;;1999.90;999.90;;;15.70;55.20;;;;;;5009707;28;20048;-87
2022/04/09 12:21:56;;;;;;;1999.90;999.90;;;15.90;54.60;;;;;;5028943;28;20029;-84
2022/04/09 12:24:22;;;;;;;1999.90;999.90;;;16.20;54.30;;;;;;5009017;28;20041;-84